sensor_id;sensor_type;location;lat;lon;timestamp;pressure;altitude;pressure_sealevel;temperature;humidity
43707;BME280;61348;53.392;-6.248;2023-03-01T00:01:12;103084.03;;;6.02;76.00
43707;BME280;61348;53.392;-6.248;2023-03-01T00:03:39;103076.94;;;6.06;76.22
43707;BME280;61348;53.392;-6.248;2023-03-01T00:06:06;103079.75;;;6.11;76.10
43707;BME280;61348;53.392;-6.248;2023-03-01T00:08:33;103069.31;;;6.13;76.33
43707;BME280;61348;53.392;-6.248;2023-03-01T00:11:10;103066.03;;;6.16;76.38
43707;BME280;61348;53.392;-6.248;2023-03-01T00:13:38;103060.28;;;6.18;76.21
43707;BME280;61348;53.392;-6.248;2023-03-01T00:16:07;103057.28;;;6.19;76.66
43707;BME280;61348;53.392;-6.248;2023-03-01T00:18:34;103059.50;;;6.22;76.86
43707;BME280;61348;53.392;-6.248;2023-03-01T00:21:01;103057.31;;;6.24;76.76
43707;BME280;61348;53.392;-6.248;2023-03-01T00:23:28;103059.56;;;6.27;76.89
43707;BME280;61348;53.392;-6.248;2023-03-01T00:25:55;103053.00;;;6.33;77.39
43707;BME280;61348;53.392;-6.248;2023-03-01T00:28:22;103059.09;;;6.35;77.52
43707;BME280;61348;53.392;-6.248;2023-03-01T00:30:49;103054.72;;;6.39;77.53
43707;BME280;61348;53.392;-6.248;2023-03-01T00:33:16;103052.53;;;6.41;77.47
43707;BME280;61348;53.392;-6.248;2023-03-01T00:35:43;103062.16;;;6.44;77.44
43707;BME280;61348;53.392;-6.248;2023-03-01T00:38:10;103056.66;;;6.44;77.46
43707;BME280;61348;53.392;-6.248;2023-03-01T00:40:37;103062.16;;;6.44;77.21
43707;BME280;61348;53.392;-6.248;2023-03-01T00:43:04;103059.19;;;6.45;77.00
43707;BME280;61348;53.392;-6.248;2023-03-01T00:45:30;103050.41;;;6.48;77.03
43707;BME280;61348;53.392;-6.248;2023-03-01T00:47:57;103050.41;;;6.48;77.04
43707;BME280;61348;53.392;-6.248;2023-03-01T00:50:24;103050.97;;;6.50;77.14
43707;BME280;61348;53.392;-6.248;2023-03-01T00:52:55;103050.97;;;6.50;77.33
43707;BME280;61348;53.392;-6.248;2023-03-01T00:55:23;103047.66;;;6.48;77.01
43707;BME280;61348;53.392;-6.248;2023-03-01T00:57:50;103051.47;;;6.47;77.31
43707;BME280;61348;53.392;-6.248;2023-03-01T01:00:18;103052.56;;;6.46;77.30
43707;BME280;61348;53.392;-6.248;2023-03-01T01:02:44;103059.41;;;6.44;77.44
43707;BME280;61348;53.392;-6.248;2023-03-01T01:05:12;103054.72;;;6.39;77.40
43707;BME280;61348;53.392;-6.248;2023-03-01T01:07:38;103051.41;;;6.37;77.30
43707;BME280;61348;53.392;-6.248;2023-03-01T01:10:06;103046.97;;;6.36;77.34
43707;BME280;61348;53.392;-6.248;2023-03-01T01:12:32;103050.84;;;6.35;77.18
43707;BME280;61348;53.392;-6.248;2023-03-01T01:14:59;103041.75;;;6.35;77.38
43707;BME280;61348;53.392;-6.248;2023-03-01T01:17:26;103042.00;;;6.33;77.35
43707;BME280;61348;53.392;-6.248;2023-03-01T01:19:52;103044.75;;;6.33;77.43
43707;BME280;61348;53.392;-6.248;2023-03-01T01:22:19;103033.75;;;6.33;77.46
43707;BME280;61348;53.392;-6.248;2023-03-01T01:24:46;103040.06;;;6.34;77.58
43707;BME280;61348;53.392;-6.248;2023-03-01T01:27:12;103045.84;;;6.32;77.44
43707;BME280;61348;53.392;-6.248;2023-03-01T01:29:39;103037.59;;;6.32;77.20
43707;BME280;61348;53.392;-6.248;2023-03-01T01:32:06;103056.25;;;6.30;76.92
43707;BME280;61348;53.392;-6.248;2023-03-01T01:34:32;103041.44;;;6.31;76.71
43707;BME280;61348;53.392;-6.248;2023-03-01T01:36:59;103045.25;;;6.30;76.54
43707;BME280;61348;53.392;-6.248;2023-03-01T01:39:29;103047.19;;;6.30;76.06
43707;BME280;61348;53.392;-6.248;2023-03-01T01:41:56;103043.63;;;6.29;75.99
43707;BME280;61348;53.392;-6.248;2023-03-01T01:44:27;103038.13;;;6.29;75.91
43707;BME280;61348;53.392;-6.248;2023-03-01T01:47:02;103034.53;;;6.29;75.51
43707;BME280;61348;53.392;-6.248;2023-03-01T01:52:08;103030.44;;;6.31;75.52
43707;BME280;61348;53.392;-6.248;2023-03-01T01:54:47;103035.94;;;6.31;75.32
43707;BME280;61348;53.392;-6.248;2023-03-01T01:57:20;103025.75;;;6.32;75.58
43707;BME280;61348;53.392;-6.248;2023-03-01T01:59:50;103019.97;;;6.33;75.55
43707;BME280;61348;53.392;-6.248;2023-03-01T02:02:18;103018.59;;;6.31;75.63
43707;BME280;61348;53.392;-6.248;2023-03-01T02:04:49;103008.69;;;6.30;75.66
43707;BME280;61348;53.392;-6.248;2023-03-01T02:07:21;103004.28;;;6.29;75.72
43707;BME280;61348;53.392;-6.248;2023-03-01T02:09:51;102996.00;;;6.29;75.79
43707;BME280;61348;53.392;-6.248;2023-03-01T02:12:23;102997.69;;;6.30;75.81
43707;BME280;61348;53.392;-6.248;2023-03-01T02:14:50;102983.94;;;6.30;75.83
43707;BME280;61348;53.392;-6.248;2023-03-01T02:17:18;102974.84;;;6.29;75.93
43707;BME280;61348;53.392;-6.248;2023-03-01T02:22:43;102969.91;;;6.31;75.77
43707;BME280;61348;53.392;-6.248;2023-03-01T02:25:27;102973.50;;;6.32;75.51
43707;BME280;61348;53.392;-6.248;2023-03-01T02:28:31;102956.16;;;6.31;75.66
43707;BME280;61348;53.392;-6.248;2023-03-01T02:30:58;102960.81;;;6.31;75.53
43707;BME280;61348;53.392;-6.248;2023-03-01T02:33:44;102964.91;;;6.28;75.11
43707;BME280;61348;53.392;-6.248;2023-03-01T02:36:26;102951.72;;;6.30;75.05
43707;BME280;61348;53.392;-6.248;2023-03-01T02:38:57;102950.94;;;6.30;75.09
43707;BME280;61348;53.392;-6.248;2023-03-01T02:41:27;102947.91;;;6.31;75.17
43707;BME280;61348;53.392;-6.248;2023-03-01T02:43:55;102950.66;;;6.31;74.84
43707;BME280;61348;53.392;-6.248;2023-03-01T02:46:24;102946.22;;;6.30;75.05
43707;BME280;61348;53.392;-6.248;2023-03-01T02:48:56;102953.41;;;6.31;74.75
43707;BME280;61348;53.392;-6.248;2023-03-01T02:56:44;102935.81;;;6.32;74.87
43707;BME280;61348;53.392;-6.248;2023-03-01T02:59:16;102934.97;;;6.32;74.84
43707;BME280;61348;53.392;-6.248;2023-03-01T03:01:44;102936.66;;;6.33;75.03
43707;BME280;61348;53.392;-6.248;2023-03-01T03:04:15;102924.81;;;6.32;74.72
43707;BME280;61348;53.392;-6.248;2023-03-01T03:06:49;102933.06;;;6.32;74.93
43707;BME280;61348;53.392;-6.248;2023-03-01T03:09:17;102920.94;;;6.33;74.94
43707;BME280;61348;53.392;-6.248;2023-03-01T03:11:44;102918.19;;;6.33;74.88
43707;BME280;61348;53.392;-6.248;2023-03-01T03:14:12;102931.69;;;6.35;74.96
43707;BME280;61348;53.392;-6.248;2023-03-01T03:16:44;102930.88;;;6.34;75.02
43707;BME280;61348;53.392;-6.248;2023-03-01T03:19:11;102928.69;;;6.36;74.68
43707;BME280;61348;53.392;-6.248;2023-03-01T03:21:38;102925.09;;;6.36;74.65
43707;BME280;61348;53.392;-6.248;2023-03-01T03:24:05;102926.19;;;6.35;74.92
43707;BME280;61348;53.392;-6.248;2023-03-01T03:26:32;102918.19;;;6.33;74.89
43707;BME280;61348;53.392;-6.248;2023-03-01T03:28:59;102923.69;;;6.33;74.73
43707;BME280;61348;53.392;-6.248;2023-03-01T03:31:26;102920.94;;;6.33;74.84
43707;BME280;61348;53.392;-6.248;2023-03-01T03:33:53;102915.97;;;6.30;74.86
43707;BME280;61348;53.392;-6.248;2023-03-01T03:36:23;102918.16;;;6.28;74.94
43707;BME280;61348;53.392;-6.248;2023-03-01T03:38:50;102904.94;;;6.25;74.86
43707;BME280;61348;53.392;-6.248;2023-03-01T03:41:17;102914.28;;;6.24;74.97
43707;BME280;61348;53.392;-6.248;2023-03-01T03:43:43;102905.22;;;6.24;74.94
43707;BME280;61348;53.392;-6.248;2023-03-01T03:46:11;102908.78;;;6.24;75.04
43707;BME280;61348;53.392;-6.248;2023-03-01T03:48:42;102912.63;;;6.23;75.03
43707;BME280;61348;53.392;-6.248;2023-03-01T03:51:13;102906.28;;;6.23;74.90
43707;BME280;61348;53.392;-6.248;2023-03-01T03:53:40;102913.72;;;6.22;75.01
43707;BME280;61348;53.392;-6.248;2023-03-01T03:56:08;102917.28;;;6.23;74.97
43707;BME280;61348;53.392;-6.248;2023-03-01T03:58:35;102914.81;;;6.21;74.82
43707;BME280;61348;53.392;-6.248;2023-03-01T04:01:02;102912.31;;;6.20;74.99
43707;BME280;61348;53.392;-6.248;2023-03-01T04:03:30;102905.16;;;6.19;74.77
43707;BME280;61348;53.392;-6.248;2023-03-01T04:05:59;102899.91;;;6.17;74.75
43707;BME280;61348;53.392;-6.248;2023-03-01T04:08:27;102909.84;;;6.18;74.71
43707;BME280;61348;53.392;-6.248;2023-03-01T04:10:59;102896.91;;;6.19;74.58
43707;BME280;61348;53.392;-6.248;2023-03-01T04:13:47;102896.09;;;6.18;74.49
43707;BME280;61348;53.392;-6.248;2023-03-01T04:16:13;102903.78;;;6.16;74.58
43707;BME280;61348;53.392;-6.248;2023-03-01T04:18:40;102896.59;;;6.15;74.49
43707;BME280;61348;53.392;-6.248;2023-03-01T04:21:07;102899.34;;;6.15;74.39
43707;BME280;61348;53.392;-6.248;2023-03-01T04:23:33;102896.59;;;6.15;74.24
43707;BME280;61348;53.392;-6.248;2023-03-01T04:26:00;102904.84;;;6.15;74.46
43707;BME280;61348;53.392;-6.248;2023-03-01T04:28:32;102897.97;;;6.12;74.36
43707;BME280;61348;53.392;-6.248;2023-03-01T04:31:07;102886.97;;;6.12;74.36
43707;BME280;61348;53.392;-6.248;2023-03-01T04:33:44;102894.13;;;6.13;74.30
43707;BME280;61348;53.392;-6.248;2023-03-01T04:36:14;102893.31;;;6.13;74.33
43707;BME280;61348;53.392;-6.248;2023-03-01T04:38:42;102886.72;;;6.14;74.03
43707;BME280;61348;53.392;-6.248;2023-03-01T04:41:10;102884.78;;;6.14;74.34
43707;BME280;61348;53.392;-6.248;2023-03-01T04:43:37;102877.34;;;6.15;74.21
43707;BME280;61348;53.392;-6.248;2023-03-01T04:46:10;102882.84;;;6.15;74.44
43707;BME280;61348;53.392;-6.248;2023-03-01T04:48:41;102880.38;;;6.13;74.29
43707;BME280;61348;53.392;-6.248;2023-03-01T04:51:08;102868.56;;;6.13;74.38
43707;BME280;61348;53.392;-6.248;2023-03-01T04:53:35;102873.22;;;6.12;74.17
43707;BME280;61348;53.392;-6.248;2023-03-01T04:56:05;102876.25;;;6.11;74.42
43707;BME280;61348;53.392;-6.248;2023-03-01T04:58:32;102873.72;;;6.09;74.52
43707;BME280;61348;53.392;-6.248;2023-03-01T05:00:59;102880.34;;;6.08;74.39
43707;BME280;61348;53.392;-6.248;2023-03-01T05:03:25;102876.22;;;6.06;74.63
43707;BME280;61348;53.392;-6.248;2023-03-01T05:05:52;102871.78;;;6.05;74.39
43707;BME280;61348;53.392;-6.248;2023-03-01T05:08:19;102867.97;;;6.06;74.62
43707;BME280;61348;53.392;-6.248;2023-03-01T05:10:51;102868.19;;;6.04;74.58
43707;BME280;61348;53.392;-6.248;2023-03-01T05:13:20;102860.78;;;6.05;74.54
43707;BME280;61348;53.392;-6.248;2023-03-01T05:15:55;102866.28;;;6.05;74.67
43707;BME280;61348;53.392;-6.248;2023-03-01T05:18:23;102865.44;;;6.04;74.66
43707;BME280;61348;53.392;-6.248;2023-03-01T05:20:53;102868.19;;;6.04;74.68
43707;BME280;61348;53.392;-6.248;2023-03-01T05:23:22;102862.97;;;6.03;74.68
43707;BME280;61348;53.392;-6.248;2023-03-01T05:25:49;102862.16;;;6.02;74.52
43707;BME280;61348;53.392;-6.248;2023-03-01T05:28:19;102862.16;;;6.02;74.50
43707;BME280;61348;53.392;-6.248;2023-03-01T05:30:46;102860.22;;;6.03;74.79
43707;BME280;61348;53.392;-6.248;2023-03-01T05:33:13;102851.41;;;6.01;74.44
43707;BME280;61348;53.392;-6.248;2023-03-01T05:35:44;102851.41;;;6.01;74.65
43707;BME280;61348;53.392;-6.248;2023-03-01T05:38:12;102856.66;;;6.02;74.54
43707;BME280;61348;53.392;-6.248;2023-03-01T05:40:40;102851.97;;;6.03;74.41
43707;BME280;61348;53.392;-6.248;2023-03-01T05:43:07;102847.56;;;6.02;74.40
43707;BME280;61348;53.392;-6.248;2023-03-01T05:45:36;102855.81;;;6.02;74.39
43707;BME280;61348;53.392;-6.248;2023-03-01T05:48:05;102858.84;;;6.00;74.69
43707;BME280;61348;53.392;-6.248;2023-03-01T05:50:37;102865.16;;;6.01;75.03
43707;BME280;61348;53.392;-6.248;2023-03-01T05:53:12;102869.00;;;6.00;75.03
43707;BME280;61348;53.392;-6.248;2023-03-01T05:55:41;102865.69;;;5.98;75.37
43707;BME280;61348;53.392;-6.248;2023-03-01T05:58:14;102865.38;;;5.94;75.74
43707;BME280;61348;53.392;-6.248;2023-03-01T06:00:42;102870.56;;;5.91;76.22
43707;BME280;61348;53.392;-6.248;2023-03-01T06:03:12;102874.41;;;5.90;76.36
43707;BME280;61348;53.392;-6.248;2023-03-01T06:05:41;102872.75;;;5.89;76.50
43707;BME280;61348;53.392;-6.248;2023-03-01T06:08:10;102879.09;;;5.89;76.33
43707;BME280;61348;53.392;-6.248;2023-03-01T06:10:37;102872.75;;;5.89;76.33
43707;BME280;61348;53.392;-6.248;2023-03-01T06:13:04;102867.25;;;5.89;76.78
43707;BME280;61348;53.392;-6.248;2023-03-01T06:15:31;102866.41;;;5.88;76.76
43707;BME280;61348;53.392;-6.248;2023-03-01T06:17:57;102874.94;;;5.87;76.72
43707;BME280;61348;53.392;-6.248;2023-03-01T06:20:28;102881.28;;;5.87;76.50
43707;BME280;61348;53.392;-6.248;2023-03-01T06:22:55;102889.25;;;5.89;76.22
43707;BME280;61348;53.392;-6.248;2023-03-01T06:25:24;102882.38;;;5.91;76.66
43707;BME280;61348;53.392;-6.248;2023-03-01T06:27:57;102870.03;;;5.94;76.28
43707;BME280;61348;53.392;-6.248;2023-03-01T06:30:25;102887.09;;;5.96;76.34
43707;BME280;61348;53.392;-6.248;2023-03-01T06:32:52;102887.69;;;5.98;76.44
43707;BME280;61348;53.392;-6.248;2023-03-01T06:35:19;102888.25;;;6.00;76.16
43707;BME280;61348;53.392;-6.248;2023-03-01T06:37:46;102885.22;;;6.01;76.22
43707;BME280;61348;53.392;-6.248;2023-03-01T06:40:14;102876.16;;;6.01;76.19
43707;BME280;61348;53.392;-6.248;2023-03-01T06:42:43;102885.22;;;6.01;76.11
43707;BME280;61348;53.392;-6.248;2023-03-01T06:45:10;102883.31;;;6.02;76.25
43707;BME280;61348;53.392;-6.248;2023-03-01T06:47:38;102880.56;;;6.02;75.94
43707;BME280;61348;53.392;-6.248;2023-03-01T06:50:05;102884.97;;;6.03;76.09
43707;BME280;61348;53.392;-6.248;2023-03-01T06:52:32;102871.22;;;6.03;75.92
43707;BME280;61348;53.392;-6.248;2023-03-01T06:54:58;102886.63;;;6.04;76.18
43707;BME280;61348;53.392;-6.248;2023-03-01T06:57:26;102873.97;;;6.03;76.03
43707;BME280;61348;53.392;-6.248;2023-03-01T06:59:53;102879.47;;;6.03;75.97
43707;BME280;61348;53.392;-6.248;2023-03-01T07:02:20;102863.81;;;6.03;75.76
43707;BME280;61348;53.392;-6.248;2023-03-01T07:04:49;102875.88;;;6.02;75.75
43707;BME280;61348;53.392;-6.248;2023-03-01T07:07:18;102870.94;;;6.04;75.82
43707;BME280;61348;53.392;-6.248;2023-03-01T07:09:45;102880.03;;;6.05;75.78
43707;BME280;61348;53.392;-6.248;2023-03-01T07:12:13;102884.69;;;6.04;75.77
43707;BME280;61348;53.392;-6.248;2023-03-01T07:14:39;102883.88;;;6.04;75.61
43707;BME280;61348;53.392;-6.248;2023-03-01T07:17:06;102886.63;;;6.04;75.65
43707;BME280;61348;53.392;-6.248;2023-03-01T07:19:33;102885.81;;;6.03;75.49
43707;BME280;61348;53.392;-6.248;2023-03-01T07:22:01;102884.69;;;6.04;75.75
43707;BME280;61348;53.392;-6.248;2023-03-01T07:24:27;102893.50;;;6.06;75.67
43707;BME280;61348;53.392;-6.248;2023-03-01T07:26:54;102889.94;;;6.06;75.79
43707;BME280;61348;53.392;-6.248;2023-03-01T07:29:21;102894.09;;;6.08;75.74
43707;BME280;61348;53.392;-6.248;2023-03-01T07:31:47;102898.25;;;6.11;75.71
43707;BME280;61348;53.392;-6.248;2023-03-01T07:34:14;102895.50;;;6.11;75.69
43707;BME280;61348;53.392;-6.248;2023-03-01T07:36:41;102898.25;;;6.11;75.45
43707;BME280;61348;53.392;-6.248;2023-03-01T07:39:10;102899.88;;;6.12;75.34
43707;BME280;61348;53.392;-6.248;2023-03-01T07:41:37;102887.53;;;6.14;75.43
43707;BME280;61348;53.392;-6.248;2023-03-01T07:44:04;102890.03;;;6.16;75.21
43707;BME280;61348;53.392;-6.248;2023-03-01T07:46:32;102890.84;;;6.17;75.22
43707;BME280;61348;53.392;-6.248;2023-03-01T07:48:59;102895.53;;;6.16;75.22
43707;BME280;61348;53.392;-6.248;2023-03-01T07:51:25;102889.75;;;6.18;75.15
43707;BME280;61348;53.392;-6.248;2023-03-01T07:53:52;102888.66;;;6.19;75.22
43707;BME280;61348;53.392;-6.248;2023-03-01T07:56:19;102896.09;;;6.18;74.97
43707;BME280;61348;53.392;-6.248;2023-03-01T07:58:47;102891.66;;;6.17;74.64
43707;BME280;61348;53.392;-6.248;2023-03-01T08:01:18;102891.66;;;6.17;74.89
43707;BME280;61348;53.392;-6.248;2023-03-01T08:03:45;102890.03;;;6.16;74.64
43707;BME280;61348;53.392;-6.248;2023-03-01T08:06:14;102887.00;;;6.18;74.42
43707;BME280;61348;53.392;-6.248;2023-03-01T08:08:41;102888.91;;;6.17;74.56
43707;BME280;61348;53.392;-6.248;2023-03-01T08:11:10;102890.59;;;6.18;74.27
43707;BME280;61348;53.392;-6.248;2023-03-01T08:13:37;102892.25;;;6.19;74.38
43707;BME280;61348;53.392;-6.248;2023-03-01T08:16:07;102890.31;;;6.20;74.39
43707;BME280;61348;53.392;-6.248;2023-03-01T08:18:34;102898.31;;;6.21;74.29
43707;BME280;61348;53.392;-6.248;2023-03-01T08:21:03;102907.13;;;6.23;74.23
43707;BME280;61348;53.392;-6.248;2023-03-01T08:23:30;102903.81;;;6.21;74.22
43707;BME280;61348;53.392;-6.248;2023-03-01T08:26:17;102901.63;;;6.23;74.19
43707;BME280;61348;53.392;-6.248;2023-03-01T08:28:46;102904.38;;;6.23;74.26
43707;BME280;61348;53.392;-6.248;2023-03-01T08:33:44;102896.13;;;6.23;74.32
43707;BME280;61348;53.392;-6.248;2023-03-01T08:36:17;102899.97;;;6.22;74.26
43707;BME280;61348;53.392;-6.248;2023-03-01T08:38:44;102906.03;;;6.24;74.34
43707;BME280;61348;53.392;-6.248;2023-03-01T08:41:12;102898.03;;;6.23;74.33
43707;BME280;61348;53.392;-6.248;2023-03-01T08:43:40;102892.28;;;6.24;74.42
43707;BME280;61348;53.392;-6.248;2023-03-01T08:46:06;102905.53;;;6.27;74.14
43707;BME280;61348;53.392;-6.248;2023-03-01T08:48:39;102901.13;;;6.31;74.20
43707;BME280;61348;53.392;-6.248;2023-03-01T08:51:10;102897.03;;;6.34;74.18
43707;BME280;61348;53.392;-6.248;2023-03-01T08:53:40;102905.59;;;6.37;74.22
43707;BME280;61348;53.392;-6.248;2023-03-01T08:56:08;102893.78;;;6.42;74.05
43707;BME280;61348;53.392;-6.248;2023-03-01T08:58:35;102900.44;;;6.46;74.00
43707;BME280;61348;53.392;-6.248;2023-03-01T09:01:10;102898.78;;;6.50;73.94
43707;BME280;61348;53.392;-6.248;2023-03-01T09:03:38;102900.72;;;6.54;73.81
43707;BME280;61348;53.392;-6.248;2023-03-01T09:06:06;102903.25;;;6.61;73.67
43707;BME280;61348;53.392;-6.248;2023-03-01T09:08:38;102907.13;;;6.65;73.57
43707;BME280;61348;53.392;-6.248;2023-03-01T09:11:07;102919.53;;;6.67;73.11
43707;BME280;61348;53.392;-6.248;2023-03-01T17:54:16;102462.53;;;7.13;70.29
43707;BME280;61348;53.392;-6.248;2023-03-01T17:57:03;102457.56;;;7.15;70.38
43707;BME280;61348;53.392;-6.248;2023-03-01T17:59:50;102457.31;;;7.11;70.48
43707;BME280;61348;53.392;-6.248;2023-03-01T18:02:37;102457.06;;;7.08;70.63
43707;BME280;61348;53.392;-6.248;2023-03-01T18:05:24;102458.72;;;7.04;70.88
43707;BME280;61348;53.392;-6.248;2023-03-01T18:08:11;102453.47;;;7.02;70.86
43707;BME280;61348;53.392;-6.248;2023-03-01T18:10:59;102456.53;;;7.01;71.03
43707;BME280;61348;53.392;-6.248;2023-03-01T18:13:46;102453.25;;;6.99;71.09
43707;BME280;61348;53.392;-6.248;2023-03-01T18:16:33;102455.41;;;6.97;71.14
43707;BME280;61348;53.392;-6.248;2023-03-01T18:19:21;102454.88;;;6.95;71.21
43707;BME280;61348;53.392;-6.248;2023-03-01T18:22:08;102453.81;;;6.91;71.50
43707;BME280;61348;53.392;-6.248;2023-03-01T18:24:55;102449.94;;;6.92;71.61
43707;BME280;61348;53.392;-6.248;2023-03-01T18:27:42;102459.84;;;6.93;71.68
43707;BME280;61348;53.392;-6.248;2023-03-01T18:30:29;102455.97;;;6.94;71.79
43707;BME280;61348;53.392;-6.248;2023-03-01T18:33:16;102451.31;;;6.94;71.88
43707;BME280;61348;53.392;-6.248;2023-03-01T18:36:04;102451.56;;;6.98;71.90
43707;BME280;61348;53.392;-6.248;2023-03-01T18:38:32;102459.53;;;6.99;71.98
43707;BME280;61348;53.392;-6.248;2023-03-01T18:40:59;102457.91;;;6.98;72.43
43707;BME280;61348;53.392;-6.248;2023-03-01T18:43:26;102463.13;;;7.00;72.33
43707;BME280;61348;53.392;-6.248;2023-03-01T18:45:58;102457.59;;;7.05;72.31
43707;BME280;61348;53.392;-6.248;2023-03-01T18:48:25;102452.06;;;7.10;72.37
43707;BME280;61348;53.392;-6.248;2023-03-01T18:50:51;102449.59;;;7.13;72.30
43707;BME280;61348;53.392;-6.248;2023-03-01T18:53:18;102455.66;;;7.15;72.51
43707;BME280;61348;53.392;-6.248;2023-03-01T18:55:45;102446.53;;;7.15;72.47
43707;BME280;61348;53.392;-6.248;2023-03-01T18:58:11;102450.44;;;7.14;72.60
43707;BME280;61348;53.392;-6.248;2023-03-01T19:00:38;102448.22;;;7.16;72.59
43707;BME280;61348;53.392;-6.248;2023-03-01T19:03:05;102432.50;;;7.16;72.67
43707;BME280;61348;53.392;-6.248;2023-03-01T19:05:32;102437.19;;;7.16;72.80
43707;BME280;61348;53.392;-6.248;2023-03-01T19:07:58;102434.97;;;7.18;72.95
43707;BME280;61348;53.392;-6.248;2023-03-01T19:10:25;102433.34;;;7.17;73.02
43707;BME280;61348;53.392;-6.248;2023-03-01T19:12:52;102436.38;;;7.15;73.02
43707;BME280;61348;53.392;-6.248;2023-03-01T19:15:18;102427.84;;;7.17;73.31
43707;BME280;61348;53.392;-6.248;2023-03-01T19:17:45;102422.88;;;7.19;73.40
43707;BME280;61348;53.392;-6.248;2023-03-01T19:20:12;102426.16;;;7.21;73.34
43707;BME280;61348;53.392;-6.248;2023-03-01T19:22:39;102426.97;;;7.21;73.57
43707;BME280;61348;53.392;-6.248;2023-03-01T19:25:06;102430.56;;;7.22;73.54
43707;BME280;61348;53.392;-6.248;2023-03-01T19:27:32;102420.63;;;7.21;73.68
43707;BME280;61348;53.392;-6.248;2023-03-01T19:29:59;102419.56;;;7.22;73.92
43707;BME280;61348;53.392;-6.248;2023-03-01T19:32:26;102423.41;;;7.21;74.10
43707;BME280;61348;53.392;-6.248;2023-03-01T19:34:53;102424.53;;;7.20;74.05
43707;BME280;61348;53.392;-6.248;2023-03-01T19:37:19;102427.28;;;7.20;74.16
43707;BME280;61348;53.392;-6.248;2023-03-01T19:39:46;102420.94;;;7.19;74.15
43707;BME280;61348;53.392;-6.248;2023-03-01T19:42:13;102419.28;;;7.18;74.39
43707;BME280;61348;53.392;-6.248;2023-03-01T19:44:40;102421.78;;;7.20;74.29
43707;BME280;61348;53.392;-6.248;2023-03-01T19:47:06;102421.78;;;7.20;74.33
43707;BME280;61348;53.392;-6.248;2023-03-01T19:49:34;102424.22;;;7.21;74.33
43707;BME280;61348;53.392;-6.248;2023-03-01T19:52:03;102422.84;;;7.24;74.33
43707;BME280;61348;53.392;-6.248;2023-03-01T19:54:30;102421.75;;;7.25;74.40
43707;BME280;61348;53.392;-6.248;2023-03-01T19:56:58;102417.88;;;7.26;74.26
43707;BME280;61348;53.392;-6.248;2023-03-01T19:59:25;102407.41;;;7.28;74.39
43707;BME280;61348;53.392;-6.248;2023-03-01T20:01:53;102414.56;;;7.29;74.23
43707;BME280;61348;53.392;-6.248;2023-03-01T20:04:21;102395.78;;;7.31;74.13
43707;BME280;61348;53.392;-6.248;2023-03-01T20:06:48;102406.28;;;7.29;73.91
43707;BME280;61348;53.392;-6.248;2023-03-01T20:09:15;102405.47;;;7.28;73.69
43707;BME280;61348;53.392;-6.248;2023-03-01T20:11:48;102392.25;;;7.25;73.49
43707;BME280;61348;53.392;-6.248;2023-03-01T20:14:15;102409.34;;;7.27;73.39
43707;BME280;61348;53.392;-6.248;2023-03-01T20:16:42;102395.81;;;7.26;73.01
43707;BME280;61348;53.392;-6.248;2023-03-01T20:19:08;102401.34;;;7.26;72.89
43707;BME280;61348;53.392;-6.248;2023-03-01T20:21:35;102410.72;;;7.25;72.65
43707;BME280;61348;53.392;-6.248;2023-03-01T20:24:02;102393.38;;;7.24;72.36
43707;BME280;61348;53.392;-6.248;2023-03-01T20:26:29;102389.78;;;7.24;72.08
43707;BME280;61348;53.392;-6.248;2023-03-01T20:28:56;102400.50;;;7.25;71.85
43707;BME280;61348;53.392;-6.248;2023-03-01T20:31:24;102395.00;;;7.25;71.60
43707;BME280;61348;53.392;-6.248;2023-03-01T20:33:57;102390.31;;;7.26;71.36
43707;BME280;61348;53.392;-6.248;2023-03-01T20:36:25;102390.31;;;7.26;70.99
43707;BME280;61348;53.392;-6.248;2023-03-01T20:38:52;102389.50;;;7.25;70.96
43707;BME280;61348;53.392;-6.248;2023-03-01T20:41:20;102393.06;;;7.26;71.03
43707;BME280;61348;53.392;-6.248;2023-03-01T20:43:47;102399.41;;;7.26;70.91
43707;BME280;61348;53.392;-6.248;2023-03-01T20:46:20;102380.41;;;7.25;70.79
43707;BME280;61348;53.392;-6.248;2023-03-01T20:48:49;102374.91;;;7.25;70.69
43707;BME280;61348;53.392;-6.248;2023-03-01T20:51:19;102374.09;;;7.24;70.64
43707;BME280;61348;53.392;-6.248;2023-03-01T20:53:46;102374.91;;;7.25;70.60
43707;BME280;61348;53.392;-6.248;2023-03-01T20:56:14;102379.59;;;7.24;70.66
43707;BME280;61348;53.392;-6.248;2023-03-01T20:58:41;102365.53;;;7.26;70.73
43707;BME280;61348;53.392;-6.248;2023-03-01T21:01:10;102374.91;;;7.25;70.61
43707;BME280;61348;53.392;-6.248;2023-03-01T21:03:39;102366.91;;;7.23;70.70
43707;BME280;61348;53.392;-6.248;2023-03-01T21:06:07;102376.00;;;7.24;70.75
43707;BME280;61348;53.392;-6.248;2023-03-01T21:08:34;102365.81;;;7.24;70.96
43707;BME280;61348;53.392;-6.248;2023-03-01T21:11:02;102356.72;;;7.24;71.01
43707;BME280;61348;53.392;-6.248;2023-03-01T21:13:32;102359.19;;;7.25;70.99
43707;BME280;61348;53.392;-6.248;2023-03-01T21:16:00;102356.72;;;7.24;71.19
43707;BME280;61348;53.392;-6.248;2023-03-01T21:18:30;102346.81;;;7.23;71.24
43707;BME280;61348;53.392;-6.248;2023-03-01T21:21:04;102349.84;;;7.21;71.27
43707;BME280;61348;53.392;-6.248;2023-03-01T21:23:32;102349.59;;;7.18;71.54
43707;BME280;61348;53.392;-6.248;2023-03-01T21:26:07;102352.34;;;7.18;71.58
43707;BME280;61348;53.392;-6.248;2023-03-01T21:28:36;102348.22;;;7.15;71.69
43707;BME280;61348;53.392;-6.248;2023-03-01T21:31:13;102345.78;;;7.14;71.95
43707;BME280;61348;53.392;-6.248;2023-03-01T21:33:44;102345.25;;;7.12;71.83
43707;BME280;61348;53.392;-6.248;2023-03-01T21:36:13;102343.56;;;7.11;71.79
43707;BME280;61348;53.392;-6.248;2023-03-01T21:38:42;102340.81;;;7.11;71.67
43707;BME280;61348;53.392;-6.248;2023-03-01T21:41:20;102330.09;;;7.09;71.61
43707;BME280;61348;53.392;-6.248;2023-03-01T21:43:48;102333.13;;;7.08;71.71
43707;BME280;61348;53.392;-6.248;2023-03-01T21:46:18;102339.19;;;7.05;71.33
43707;BME280;61348;53.392;-6.248;2023-03-01T21:48:47;102336.19;;;7.01;71.07
43707;BME280;61348;53.392;-6.248;2023-03-01T21:51:17;102333.19;;;6.98;70.88
43707;BME280;61348;53.392;-6.248;2023-03-01T21:53:45;102336.75;;;6.98;70.79
43707;BME280;61348;53.392;-6.248;2023-03-01T21:56:17;102342.50;;;7.02;70.80